sensor_id;sensor_type;location;lat;lon;timestamp;P1;durP1;ratioP1;P2;durP2;ratioP2
28766;SDS011;15921;52.034;20.650;2024-01-30T00:01:38;41.25;;;16.45;;
28766;SDS011;15921;52.034;20.650;2024-01-30T00:04:04;38.90;;;15.38;;
28766;SDS011;15921;52.034;20.650;2024-01-30T00:06:29;44.17;;;16.90;;
28766;SDS011;15921;52.034;20.650;2024-01-30T00:08:55;39.20;;;16.55;;
28766;SDS011;15921;52.034;20.650;2024-01-30T00:11:21;38.75;;;16.15;;
28766;SDS011;15921;52.034;20.650;2024-01-30T00:13:46;41.05;;;17.25;;
28766;SDS011;15921;52.034;20.650;2024-01-30T00:16:21;43.35;;;17.65;;
28766;SDS011;15921;52.034;20.650;2024-01-30T00:18:52;44.05;;;16.92;;
28766;SDS011;15921;52.034;20.650;2024-01-30T00:21:19;37.47;;;16.40;;
28766;SDS011;15921;52.034;20.650;2024-01-30T00:23:46;38.58;;;15.35;;
28766;SDS011;15921;52.034;20.650;2024-01-30T00:26:12;40.42;;;17.75;;
28766;SDS011;15921;52.034;20.650;2024-01-30T00:28:40;40.90;;;17.45;;
28766;SDS011;15921;52.034;20.650;2024-01-30T00:31:06;39.13;;;16.48;;
28766;SDS011;15921;52.034;20.650;2024-01-30T00:33:32;38.58;;;15.88;;
28766;SDS011;15921;52.034;20.650;2024-01-30T00:35:57;40.13;;;16.33;;
28766;SDS011;15921;52.034;20.650;2024-01-30T00:38:23;33.83;;;15.35;;
28766;SDS011;15921;52.034;20.650;2024-01-30T00:40:49;40.50;;;15.45;;
28766;SDS011;15921;52.034;20.650;2024-01-30T00:43:15;38.47;;;15.40;;
28766;SDS011;15921;52.034;20.650;2024-01-30T00:45:43;38.28;;;16.15;;
28766;SDS011;15921;52.034;20.650;2024-01-30T00:48:09;38.40;;;15.98;;
28766;SDS011;15921;52.034;20.650;2024-01-30T00:50:34;33.92;;;15.07;;
28766;SDS011;15921;52.034;20.650;2024-01-30T00:53:00;39.42;;;16.40;;
28766;SDS011;15921;52.034;20.650;2024-01-30T00:55:26;39.22;;;17.15;;
28766;SDS011;15921;52.034;20.650;2024-01-30T00:57:51;39.80;;;17.42;;
28766;SDS011;15921;52.034;20.650;2024-01-30T01:00:18;40.58;;;16.50;;
28766;SDS011;15921;52.034;20.650;2024-01-30T01:02:44;34.20;;;15.38;;
28766;SDS011;15921;52.034;20.650;2024-01-30T01:05:10;39.60;;;16.73;;
28766;SDS011;15921;52.034;20.650;2024-01-30T01:07:36;41.40;;;16.90;;
28766;SDS011;15921;52.034;20.650;2024-01-30T01:10:02;39.38;;;16.83;;
28766;SDS011;15921;52.034;20.650;2024-01-30T01:12:28;37.53;;;16.67;;
28766;SDS011;15921;52.034;20.650;2024-01-30T01:14:54;39.67;;;16.10;;
28766;SDS011;15921;52.034;20.650;2024-01-30T01:17:20;40.97;;;15.95;;
28766;SDS011;15921;52.034;20.650;2024-01-30T01:19:46;41.50;;;16.23;;
28766;SDS011;15921;52.034;20.650;2024-01-30T01:22:11;39.40;;;16.50;;
28766;SDS011;15921;52.034;20.650;2024-01-30T01:24:37;35.92;;;16.58;;
28766;SDS011;15921;52.034;20.650;2024-01-30T01:27:03;39.95;;;16.38;;
28766;SDS011;15921;52.034;20.650;2024-01-30T01:29:28;38.60;;;16.83;;
28766;SDS011;15921;52.034;20.650;2024-01-30T01:32:00;40.00;;;17.52;;
28766;SDS011;15921;52.034;20.650;2024-01-30T01:34:25;38.97;;;16.70;;
28766;SDS011;15921;52.034;20.650;2024-01-30T01:36:51;38.65;;;17.00;;
28766;SDS011;15921;52.034;20.650;2024-01-30T01:39:20;46.33;;;17.10;;
28766;SDS011;15921;52.034;20.650;2024-01-30T01:41:47;47.28;;;18.17;;
28766;SDS011;15921;52.034;20.650;2024-01-30T01:44:13;41.70;;;16.00;;
28766;SDS011;15921;52.034;20.650;2024-01-30T01:46:39;41.92;;;16.83;;
28766;SDS011;15921;52.034;20.650;2024-01-30T01:49:05;48.30;;;17.95;;
28766;SDS011;15921;52.034;20.650;2024-01-30T01:51:33;41.72;;;16.80;;
28766;SDS011;15921;52.034;20.650;2024-01-30T01:54:01;41.22;;;16.88;;
28766;SDS011;15921;52.034;20.650;2024-01-30T01:56:29;41.13;;;16.90;;
28766;SDS011;15921;52.034;20.650;2024-01-30T01:58:56;40.22;;;16.52;;
28766;SDS011;15921;52.034;20.650;2024-01-30T02:01:25;39.80;;;15.82;;
28766;SDS011;15921;52.034;20.650;2024-01-30T02:03:53;45.35;;;17.83;;
28766;SDS011;15921;52.034;20.650;2024-01-30T02:06:19;40.50;;;17.38;;
28766;SDS011;15921;52.034;20.650;2024-01-30T02:08:45;42.72;;;17.58;;
28766;SDS011;15921;52.034;20.650;2024-01-30T02:11:11;37.22;;;16.10;;
28766;SDS011;15921;52.034;20.650;2024-01-30T02:13:37;41.05;;;17.38;;
28766;SDS011;15921;52.034;20.650;2024-01-30T02:16:02;48.72;;;17.20;;
28766;SDS011;15921;52.034;20.650;2024-01-30T02:18:28;39.70;;;16.77;;
28766;SDS011;15921;52.034;20.650;2024-01-30T02:20:56;46.20;;;17.80;;
28766;SDS011;15921;52.034;20.650;2024-01-30T02:23:23;42.35;;;17.88;;
28766;SDS011;15921;52.034;20.650;2024-01-30T02:25:52;40.92;;;16.52;;
28766;SDS011;15921;52.034;20.650;2024-01-30T02:28:19;42.35;;;16.38;;
28766;SDS011;15921;52.034;20.650;2024-01-30T02:30:45;44.80;;;18.50;;
28766;SDS011;15921;52.034;20.650;2024-01-30T02:33:11;40.22;;;17.02;;
28766;SDS011;15921;52.034;20.650;2024-01-30T02:35:38;43.00;;;17.80;;
28766;SDS011;15921;52.034;20.650;2024-01-30T02:38:04;41.75;;;16.15;;
28766;SDS011;15921;52.034;20.650;2024-01-30T02:40:30;41.10;;;16.58;;
28766;SDS011;15921;52.034;20.650;2024-01-30T02:42:57;41.53;;;16.98;;
28766;SDS011;15921;52.034;20.650;2024-01-30T02:45:23;37.70;;;17.33;;
28766;SDS011;15921;52.034;20.650;2024-01-30T02:47:49;41.72;;;17.08;;
28766;SDS011;15921;52.034;20.650;2024-01-30T02:50:15;42.15;;;16.70;;
28766;SDS011;15921;52.034;20.650;2024-01-30T02:52:41;38.92;;;16.55;;
28766;SDS011;15921;52.034;20.650;2024-01-30T02:55:09;40.92;;;17.20;;
28766;SDS011;15921;52.034;20.650;2024-01-30T02:57:35;40.58;;;16.65;;
28766;SDS011;15921;52.034;20.650;2024-01-30T03:00:00;37.72;;;16.60;;
28766;SDS011;15921;52.034;20.650;2024-01-30T03:02:26;43.80;;;16.80;;
28766;SDS011;15921;52.034;20.650;2024-01-30T03:04:52;40.72;;;16.95;;
28766;SDS011;15921;52.034;20.650;2024-01-30T03:07:18;46.80;;;18.35;;
28766;SDS011;15921;52.034;20.650;2024-01-30T03:09:43;44.95;;;17.80;;
28766;SDS011;15921;52.034;20.650;2024-01-30T03:12:09;41.13;;;17.40;;
28766;SDS011;15921;52.034;20.650;2024-01-30T03:14:35;43.30;;;16.48;;
28766;SDS011;15921;52.034;20.650;2024-01-30T03:17:00;36.42;;;16.15;;
28766;SDS011;15921;52.034;20.650;2024-01-30T03:19:26;40.08;;;17.30;;
28766;SDS011;15921;52.034;20.650;2024-01-30T03:21:52;47.03;;;18.58;;
28766;SDS011;15921;52.034;20.650;2024-01-30T03:24:18;39.72;;;16.42;;
28766;SDS011;15921;52.034;20.650;2024-01-30T03:26:44;45.58;;;17.13;;
28766;SDS011;15921;52.034;20.650;2024-01-30T03:29:10;47.25;;;17.75;;
28766;SDS011;15921;52.034;20.650;2024-01-30T03:31:35;39.88;;;17.30;;
28766;SDS011;15921;52.034;20.650;2024-01-30T03:34:01;43.50;;;17.48;;
28766;SDS011;15921;52.034;20.650;2024-01-30T03:36:28;46.38;;;17.42;;
28766;SDS011;15921;52.034;20.650;2024-01-30T03:38:53;42.67;;;17.17;;
28766;SDS011;15921;52.034;20.650;2024-01-30T03:41:19;42.00;;;16.27;;
28766;SDS011;15921;52.034;20.650;2024-01-30T03:43:45;43.47;;;17.40;;
28766;SDS011;15921;52.034;20.650;2024-01-30T03:46:12;41.80;;;17.13;;
28766;SDS011;15921;52.034;20.650;2024-01-30T03:48:38;42.42;;;18.25;;
28766;SDS011;15921;52.034;20.650;2024-01-30T03:51:04;42.80;;;17.70;;
28766;SDS011;15921;52.034;20.650;2024-01-30T03:53:30;46.30;;;17.23;;
28766;SDS011;15921;52.034;20.650;2024-01-30T03:55:56;40.35;;;17.00;;
28766;SDS011;15921;52.034;20.650;2024-01-30T03:58:22;43.40;;;16.42;;
28766;SDS011;15921;52.034;20.650;2024-01-30T04:00:47;38.10;;;16.67;;
28766;SDS011;15921;52.034;20.650;2024-01-30T04:03:16;37.75;;;16.38;;
28766;SDS011;15921;52.034;20.650;2024-01-30T04:05:42;45.42;;;15.68;;
28766;SDS011;15921;52.034;20.650;2024-01-30T04:08:08;43.67;;;16.63;;
28766;SDS011;15921;52.034;20.650;2024-01-30T04:10:33;45.25;;;17.35;;
28766;SDS011;15921;52.034;20.650;2024-01-30T04:12:59;47.35;;;17.65;;
28766;SDS011;15921;52.034;20.650;2024-01-30T04:15:25;39.65;;;16.65;;
28766;SDS011;15921;52.034;20.650;2024-01-30T04:17:51;42.67;;;16.63;;
28766;SDS011;15921;52.034;20.650;2024-01-30T04:20:18;39.65;;;16.70;;
28766;SDS011;15921;52.034;20.650;2024-01-30T04:22:44;43.75;;;16.98;;
28766;SDS011;15921;52.034;20.650;2024-01-30T04:25:11;38.55;;;16.88;;
28766;SDS011;15921;52.034;20.650;2024-01-30T04:27:39;44.20;;;17.10;;
28766;SDS011;15921;52.034;20.650;2024-01-30T04:30:05;41.33;;;17.45;;
28766;SDS011;15921;52.034;20.650;2024-01-30T04:32:32;41.47;;;17.05;;
28766;SDS011;15921;52.034;20.650;2024-01-30T04:34:58;40.20;;;17.33;;
28766;SDS011;15921;52.034;20.650;2024-01-30T04:37:24;46.97;;;16.35;;
28766;SDS011;15921;52.034;20.650;2024-01-30T04:39:50;40.08;;;17.58;;
28766;SDS011;15921;52.034;20.650;2024-01-30T04:42:16;41.20;;;16.83;;
28766;SDS011;15921;52.034;20.650;2024-01-30T04:44:42;38.05;;;16.45;;
28766;SDS011;15921;52.034;20.650;2024-01-30T04:47:08;41.60;;;17.23;;
28766;SDS011;15921;52.034;20.650;2024-01-30T04:49:36;46.50;;;17.88;;
28766;SDS011;15921;52.034;20.650;2024-01-30T04:52:01;47.05;;;18.42;;
28766;SDS011;15921;52.034;20.650;2024-01-30T04:54:27;43.42;;;18.05;;
28766;SDS011;15921;52.034;20.650;2024-01-30T04:56:53;57.10;;;18.25;;
28766;SDS011;15921;52.034;20.650;2024-01-30T04:59:18;49.40;;;19.30;;
28766;SDS011;15921;52.034;20.650;2024-01-30T05:01:44;46.72;;;16.63;;
28766;SDS011;15921;52.034;20.650;2024-01-30T05:04:10;37.65;;;16.50;;
28766;SDS011;15921;52.034;20.650;2024-01-30T05:06:36;44.75;;;17.70;;
28766;SDS011;15921;52.034;20.650;2024-01-30T05:09:02;41.90;;;16.42;;
28766;SDS011;15921;52.034;20.650;2024-01-30T05:11:29;46.35;;;18.33;;
28766;SDS011;15921;52.034;20.650;2024-01-30T05:13:55;43.67;;;17.95;;
28766;SDS011;15921;52.034;20.650;2024-01-30T05:16:21;39.53;;;17.48;;
28766;SDS011;15921;52.034;20.650;2024-01-30T05:18:47;45.08;;;17.35;;
28766;SDS011;15921;52.034;20.650;2024-01-30T05:21:12;43.22;;;18.13;;
28766;SDS011;15921;52.034;20.650;2024-01-30T05:23:38;39.25;;;16.45;;
28766;SDS011;15921;52.034;20.650;2024-01-30T05:26:05;37.78;;;15.90;;
28766;SDS011;15921;52.034;20.650;2024-01-30T05:28:31;40.72;;;16.30;;
28766;SDS011;15921;52.034;20.650;2024-01-30T05:30:57;47.25;;;17.80;;
28766;SDS011;15921;52.034;20.650;2024-01-30T05:33:22;40.25;;;16.90;;
28766;SDS011;15921;52.034;20.650;2024-01-30T05:35:48;39.28;;;17.02;;
28766;SDS011;15921;52.034;20.650;2024-01-30T05:38:15;39.88;;;16.00;;
28766;SDS011;15921;52.034;20.650;2024-01-30T05:40:41;41.72;;;16.77;;
28766;SDS011;15921;52.034;20.650;2024-01-30T05:43:07;40.40;;;16.13;;
28766;SDS011;15921;52.034;20.650;2024-01-30T05:45:33;38.72;;;16.73;;
28766;SDS011;15921;52.034;20.650;2024-01-30T05:48:00;36.90;;;16.45;;
28766;SDS011;15921;52.034;20.650;2024-01-30T05:50:26;43.90;;;16.27;;
28766;SDS011;15921;52.034;20.650;2024-01-30T05:52:52;44.47;;;17.63;;
28766;SDS011;15921;52.034;20.650;2024-01-30T05:55:18;38.28;;;16.48;;
28766;SDS011;15921;52.034;20.650;2024-01-30T05:57:43;44.30;;;16.77;;
28766;SDS011;15921;52.034;20.650;2024-01-30T06:00:09;44.15;;;17.02;;
28766;SDS011;15921;52.034;20.650;2024-01-30T06:02:35;39.33;;;16.83;;
28766;SDS011;15921;52.034;20.650;2024-01-30T06:05:01;41.47;;;15.82;;
28766;SDS011;15921;52.034;20.650;2024-01-30T06:07:27;50.15;;;17.42;;
28766;SDS011;15921;52.034;20.650;2024-01-30T06:09:53;38.10;;;15.50;;
28766;SDS011;15921;52.034;20.650;2024-01-30T06:12:19;37.88;;;16.15;;
28766;SDS011;15921;52.034;20.650;2024-01-30T06:14:44;39.80;;;15.73;;
28766;SDS011;15921;52.034;20.650;2024-01-30T06:17:10;42.83;;;16.15;;
28766;SDS011;15921;52.034;20.650;2024-01-30T06:19:37;37.72;;;15.98;;
28766;SDS011;15921;52.034;20.650;2024-01-30T06:22:06;39.85;;;16.80;;
28766;SDS011;15921;52.034;20.650;2024-01-30T06:24:32;42.25;;;16.35;;
28766;SDS011;15921;52.034;20.650;2024-01-30T06:26:59;39.53;;;16.63;;
28766;SDS011;15921;52.034;20.650;2024-01-30T06:29:25;37.88;;;16.80;;
28766;SDS011;15921;52.034;20.650;2024-01-30T06:31:51;51.55;;;17.90;;
28766;SDS011;15921;52.034;20.650;2024-01-30T06:34:17;42.63;;;16.85;;
28766;SDS011;15921;52.034;20.650;2024-01-30T06:36:43;41.63;;;17.13;;
28766;SDS011;15921;52.034;20.650;2024-01-30T06:39:08;43.58;;;16.58;;
28766;SDS011;15921;52.034;20.650;2024-01-30T06:41:34;43.05;;;16.27;;
28766;SDS011;15921;52.034;20.650;2024-01-30T06:44:01;40.45;;;15.55;;
28766;SDS011;15921;52.034;20.650;2024-01-30T06:46:29;41.65;;;16.20;;
28766;SDS011;15921;52.034;20.650;2024-01-30T06:48:54;46.40;;;17.23;;
28766;SDS011;15921;52.034;20.650;2024-01-30T06:51:20;43.13;;;17.98;;
28766;SDS011;15921;52.034;20.650;2024-01-30T06:53:46;44.03;;;16.25;;
28766;SDS011;15921;52.034;20.650;2024-01-30T06:56:11;38.95;;;16.27;;
28766;SDS011;15921;52.034;20.650;2024-01-30T06:58:37;46.58;;;18.08;;
28766;SDS011;15921;52.034;20.650;2024-01-30T07:01:03;41.25;;;17.20;;
28766;SDS011;15921;52.034;20.650;2024-01-30T07:03:29;45.53;;;17.30;;
28766;SDS011;15921;52.034;20.650;2024-01-30T07:05:55;47.80;;;17.67;;
28766;SDS011;15921;52.034;20.650;2024-01-30T07:08:21;40.33;;;17.42;;
28766;SDS011;15921;52.034;20.650;2024-01-30T07:10:47;39.30;;;16.10;;
28766;SDS011;15921;52.034;20.650;2024-01-30T07:13:13;39.42;;;15.82;;
28766;SDS011;15921;52.034;20.650;2024-01-30T07:15:41;38.30;;;16.52;;
28766;SDS011;15921;52.034;20.650;2024-01-30T07:18:07;44.30;;;16.33;;
28766;SDS011;15921;52.034;20.650;2024-01-30T07:20:34;41.50;;;15.88;;
28766;SDS011;15921;52.034;20.650;2024-01-30T07:23:00;41.88;;;16.83;;
28766;SDS011;15921;52.034;20.650;2024-01-30T07:25:27;43.85;;;17.23;;
28766;SDS011;15921;52.034;20.650;2024-01-30T07:27:54;41.08;;;17.50;;
28766;SDS011;15921;52.034;20.650;2024-01-30T07:30:21;42.53;;;16.58;;
28766;SDS011;15921;52.034;20.650;2024-01-30T07:32:48;37.50;;;16.38;;
28766;SDS011;15921;52.034;20.650;2024-01-30T07:35:14;47.70;;;16.80;;
28766;SDS011;15921;52.034;20.650;2024-01-30T07:37:39;42.15;;;17.13;;
28766;SDS011;15921;52.034;20.650;2024-01-30T07:40:05;37.67;;;14.55;;
28766;SDS011;15921;52.034;20.650;2024-01-30T07:42:32;43.08;;;16.13;;
28766;SDS011;15921;52.034;20.650;2024-01-30T07:44:58;37.97;;;14.57;;
28766;SDS011;15921;52.034;20.650;2024-01-30T07:47:24;38.85;;;14.95;;
28766;SDS011;15921;52.034;20.650;2024-01-30T07:49:50;37.78;;;14.65;;
28766;SDS011;15921;52.034;20.650;2024-01-30T07:52:16;34.35;;;14.48;;
28766;SDS011;15921;52.034;20.650;2024-01-30T07:54:42;33.85;;;14.27;;
28766;SDS011;15921;52.034;20.650;2024-01-30T07:57:07;30.85;;;13.68;;
28766;SDS011;15921;52.034;20.650;2024-01-30T07:59:33;31.63;;;13.55;;
28766;SDS011;15921;52.034;20.650;2024-01-30T08:01:59;33.42;;;15.02;;
28766;SDS011;15921;52.034;20.650;2024-01-30T08:04:24;36.83;;;13.98;;
28766;SDS011;15921;52.034;20.650;2024-01-30T08:06:50;37.47;;;14.80;;
28766;SDS011;15921;52.034;20.650;2024-01-30T08:09:16;30.13;;;13.75;;
28766;SDS011;15921;52.034;20.650;2024-01-30T08:11:41;34.22;;;14.70;;
28766;SDS011;15921;52.034;20.650;2024-01-30T08:14:07;36.88;;;14.15;;
28766;SDS011;15921;52.034;20.650;2024-01-30T08:16:33;37.20;;;15.15;;
28766;SDS011;15921;52.034;20.650;2024-01-30T08:18:59;30.45;;;13.98;;
28766;SDS011;15921;52.034;20.650;2024-01-30T08:21:25;36.08;;;14.63;;
28766;SDS011;15921;52.034;20.650;2024-01-30T08:23:51;34.25;;;14.68;;
28766;SDS011;15921;52.034;20.650;2024-01-30T08:26:17;29.38;;;12.98;;
28766;SDS011;15921;52.034;20.650;2024-01-30T08:28:43;36.15;;;13.75;;
28766;SDS011;15921;52.034;20.650;2024-01-30T08:31:10;34.28;;;13.45;;
28766;SDS011;15921;52.034;20.650;2024-01-30T08:33:37;30.15;;;13.75;;
28766;SDS011;15921;52.034;20.650;2024-01-30T08:36:02;36.08;;;14.30;;
28766;SDS011;15921;52.034;20.650;2024-01-30T08:38:28;31.58;;;13.88;;
28766;SDS011;15921;52.034;20.650;2024-01-30T08:40:54;42.22;;;15.55;;
28766;SDS011;15921;52.034;20.650;2024-01-30T08:43:21;34.25;;;13.50;;
28766;SDS011;15921;52.034;20.650;2024-01-30T08:45:46;36.30;;;14.02;;
28766;SDS011;15921;52.034;20.650;2024-01-30T08:48:12;34.08;;;13.25;;
28766;SDS011;15921;52.034;20.650;2024-01-30T08:50:38;32.83;;;13.27;;
28766;SDS011;15921;52.034;20.650;2024-01-30T08:53:04;36.88;;;13.88;;
28766;SDS011;15921;52.034;20.650;2024-01-30T08:55:30;32.13;;;13.23;;
28766;SDS011;15921;52.034;20.650;2024-01-30T08:57:55;27.83;;;12.25;;
28766;SDS011;15921;52.034;20.650;2024-01-30T09:00:21;30.48;;;12.57;;
28766;SDS011;15921;52.034;20.650;2024-01-30T09:02:47;31.05;;;13.18;;
28766;SDS011;15921;52.034;20.650;2024-01-30T09:05:12;30.25;;;11.77;;
28766;SDS011;15921;52.034;20.650;2024-01-30T09:07:38;29.35;;;12.23;;
28766;SDS011;15921;52.034;20.650;2024-01-30T09:10:04;30.15;;;13.25;;
28766;SDS011;15921;52.034;20.650;2024-01-30T09:12:30;31.80;;;13.18;;
28766;SDS011;15921;52.034;20.650;2024-01-30T09:14:56;29.60;;;13.40;;
28766;SDS011;15921;52.034;20.650;2024-01-30T09:17:22;26.88;;;12.80;;
28766;SDS011;15921;52.034;20.650;2024-01-30T09:19:47;32.80;;;13.20;;
28766;SDS011;15921;52.034;20.650;2024-01-30T09:22:13;28.52;;;12.48;;
28766;SDS011;15921;52.034;20.650;2024-01-30T09:24:40;28.02;;;12.98;;
28766;SDS011;15921;52.034;20.650;2024-01-30T09:27:06;26.98;;;11.68;;
28766;SDS011;15921;52.034;20.650;2024-01-30T09:29:31;28.67;;;12.52;;
28766;SDS011;15921;52.034;20.650;2024-01-30T09:31:59;32.13;;;12.98;;
28766;SDS011;15921;52.034;20.650;2024-01-30T09:34:25;34.25;;;12.68;;
28766;SDS011;15921;52.034;20.650;2024-01-30T09:36:51;28.67;;;12.30;;
28766;SDS011;15921;52.034;20.650;2024-01-30T09:39:17;28.15;;;12.63;;
28766;SDS011;15921;52.034;20.650;2024-01-30T09:41:45;30.52;;;13.15;;
28766;SDS011;15921;52.034;20.650;2024-01-30T09:44:15;27.65;;;12.95;;
28766;SDS011;15921;52.034;20.650;2024-01-30T09:46:42;36.33;;;13.60;;
28766;SDS011;15921;52.034;20.650;2024-01-30T09:49:08;29.85;;;12.32;;
28766;SDS011;15921;52.034;20.650;2024-01-30T09:51:34;28.08;;;12.95;;
28766;SDS011;15921;52.034;20.650;2024-01-30T09:54:02;33.63;;;12.77;;
28766;SDS011;15921;52.034;20.650;2024-01-30T09:56:28;31.92;;;13.45;;
28766;SDS011;15921;52.034;20.650;2024-01-30T09:58:54;35.40;;;14.20;;
28766;SDS011;15921;52.034;20.650;2024-01-30T10:01:19;38.38;;;13.35;;
28766;SDS011;15921;52.034;20.650;2024-01-30T10:03:45;28.05;;;12.18;;
28766;SDS011;15921;52.034;20.650;2024-01-30T10:06:11;35.85;;;13.98;;
28766;SDS011;15921;52.034;20.650;2024-01-30T10:08:37;26.73;;;12.40;;
28766;SDS011;15921;52.034;20.650;2024-01-30T10:11:03;28.15;;;12.85;;
28766;SDS011;15921;52.034;20.650;2024-01-30T10:13:29;28.92;;;12.98;;
28766;SDS011;15921;52.034;20.650;2024-01-30T10:15:54;28.98;;;13.00;;
28766;SDS011;15921;52.034;20.650;2024-01-30T10:18:22;33.20;;;11.63;;
28766;SDS011;15921;52.034;20.650;2024-01-30T10:20:48;33.33;;;13.40;;
28766;SDS011;15921;52.034;20.650;2024-01-30T10:23:14;34.38;;;12.60;;
28766;SDS011;15921;52.034;20.650;2024-01-30T10:25:40;27.85;;;12.30;;
28766;SDS011;15921;52.034;20.650;2024-01-30T10:28:06;29.50;;;13.45;;
28766;SDS011;15921;52.034;20.650;2024-01-30T10:30:32;29.10;;;13.23;;
28766;SDS011;15921;52.034;20.650;2024-01-30T10:32:57;35.80;;;14.70;;
28766;SDS011;15921;52.034;20.650;2024-01-30T10:35:23;27.77;;;12.27;;
28766;SDS011;15921;52.034;20.650;2024-01-30T10:37:49;29.88;;;14.10;;
28766;SDS011;15921;52.034;20.650;2024-01-30T10:40:15;30.25;;;12.18;;
28766;SDS011;15921;52.034;20.650;2024-01-30T10:42:44;31.98;;;12.70;;
28766;SDS011;15921;52.034;20.650;2024-01-30T10:45:11;28.42;;;12.35;;
28766;SDS011;15921;52.034;20.650;2024-01-30T10:47:43;29.88;;;13.48;;
28766;SDS011;15921;52.034;20.650;2024-01-30T10:50:13;31.60;;;13.02;;
28766;SDS011;15921;52.034;20.650;2024-01-30T10:52:39;27.05;;;12.65;;
28766;SDS011;15921;52.034;20.650;2024-01-30T10:55:07;27.70;;;13.63;;
28766;SDS011;15921;52.034;20.650;2024-01-30T10:57:36;27.33;;;12.25;;
28766;SDS011;15921;52.034;20.650;2024-01-30T11:00:04;25.58;;;12.13;;
28766;SDS011;15921;52.034;20.650;2024-01-30T11:05:04;31.52;;;12.65;;
28766;SDS011;15921;52.034;20.650;2024-01-30T11:07:30;25.83;;;12.15;;
28766;SDS011;15921;52.034;20.650;2024-01-30T11:12:27;26.35;;;13.40;;
28766;SDS011;15921;52.034;20.650;2024-01-30T11:15:06;26.85;;;12.20;;
28766;SDS011;15921;52.034;20.650;2024-01-30T11:20:48;28.02;;;12.05;;
28766;SDS011;15921;52.034;20.650;2024-01-30T11:23:11;32.15;;;12.75;;
28766;SDS011;15921;52.034;20.650;2024-01-30T11:25:37;25.88;;;12.70;;
28766;SDS011;15921;52.034;20.650;2024-01-30T11:28:03;27.40;;;12.18;;
28766;SDS011;15921;52.034;20.650;2024-01-30T11:30:32;26.75;;;12.52;;
28766;SDS011;15921;52.034;20.650;2024-01-30T11:33:01;27.63;;;12.90;;
28766;SDS011;15921;52.034;20.650;2024-01-30T11:35:49;27.02;;;12.55;;
28766;SDS011;15921;52.034;20.650;2024-01-30T11:38:15;33.05;;;13.68;;
28766;SDS011;15921;52.034;20.650;2024-01-30T11:40:41;24.45;;;11.02;;
28766;SDS011;15921;52.034;20.650;2024-01-30T11:43:09;27.40;;;11.25;;
28766;SDS011;15921;52.034;20.650;2024-01-30T11:45:35;27.58;;;11.38;;
28766;SDS011;15921;52.034;20.650;2024-01-30T11:48:02;26.23;;;11.48;;
28766;SDS011;15921;52.034;20.650;2024-01-30T11:50:29;28.88;;;11.15;;
28766;SDS011;15921;52.034;20.650;2024-01-30T11:52:55;22.40;;;11.77;;
28766;SDS011;15921;52.034;20.650;2024-01-30T11:55:22;23.00;;;11.70;;
28766;SDS011;15921;52.034;20.650;2024-01-30T11:57:48;29.77;;;12.77;;
28766;SDS011;15921;52.034;20.650;2024-01-30T12:00:15;26.40;;;12.15;;
28766;SDS011;15921;52.034;20.650;2024-01-30T12:02:44;27.00;;;11.93;;
28766;SDS011;15921;52.034;20.650;2024-01-30T12:05:15;28.90;;;12.13;;
28766;SDS011;15921;52.034;20.650;2024-01-30T12:07:43;24.50;;;11.52;;
28766;SDS011;15921;52.034;20.650;2024-01-30T12:10:09;29.05;;;12.00;;
28766;SDS011;15921;52.034;20.650;2024-01-30T12:12:36;25.60;;;12.10;;
28766;SDS011;15921;52.034;20.650;2024-01-30T12:15:02;26.27;;;12.82;;
28766;SDS011;15921;52.034;20.650;2024-01-30T12:17:29;30.38;;;14.15;;
28766;SDS011;15921;52.034;20.650;2024-01-30T12:20:12;35.05;;;13.13;;
28766;SDS011;15921;52.034;20.650;2024-01-30T12:22:40;27.13;;;12.18;;
28766;SDS011;15921;52.034;20.650;2024-01-30T12:25:08;22.70;;;11.98;;
28766;SDS011;15921;52.034;20.650;2024-01-30T12:27:34;21.95;;;11.30;;
28766;SDS011;15921;52.034;20.650;2024-01-30T12:30:00;24.77;;;11.68;;
28766;SDS011;15921;52.034;20.650;2024-01-30T12:32:26;20.90;;;11.05;;
28766;SDS011;15921;52.034;20.650;2024-01-30T12:34:56;28.88;;;12.00;;
28766;SDS011;15921;52.034;20.650;2024-01-30T12:37:22;25.40;;;11.50;;
28766;SDS011;15921;52.034;20.650;2024-01-30T12:39:49;20.95;;;11.13;;
28766;SDS011;15921;52.034;20.650;2024-01-30T12:42:18;23.65;;;10.98;;
28766;SDS011;15921;52.034;20.650;2024-01-30T12:44:45;25.65;;;11.50;;
28766;SDS011;15921;52.034;20.650;2024-01-30T12:47:11;21.58;;;10.50;;
28766;SDS011;15921;52.034;20.650;2024-01-30T12:49:36;23.25;;;11.27;;
28766;SDS011;15921;52.034;20.650;2024-01-30T12:52:02;22.67;;;10.82;;
28766;SDS011;15921;52.034;20.650;2024-01-30T12:54:28;23.42;;;10.57;;
28766;SDS011;15921;52.034;20.650;2024-01-30T12:56:54;23.27;;;11.38;;
28766;SDS011;15921;52.034;20.650;2024-01-30T12:59:21;22.27;;;11.88;;
28766;SDS011;15921;52.034;20.650;2024-01-30T13:01:46;27.45;;;12.98;;
28766;SDS011;15921;52.034;20.650;2024-01-30T13:04:12;22.63;;;10.77;;
28766;SDS011;15921;52.034;20.650;2024-01-30T13:06:38;22.80;;;11.30;;
28766;SDS011;15921;52.034;20.650;2024-01-30T13:09:04;22.40;;;10.88;;
28766;SDS011;15921;52.034;20.650;2024-01-30T13:11:30;23.35;;;10.82;;
28766;SDS011;15921;52.034;20.650;2024-01-30T13:13:56;22.40;;;10.98;;
28766;SDS011;15921;52.034;20.650;2024-01-30T13:16:22;23.30;;;11.00;;
28766;SDS011;15921;52.034;20.650;2024-01-30T13:18:48;24.13;;;11.27;;
28766;SDS011;15921;52.034;20.650;2024-01-30T13:21:14;29.23;;;12.07;;
28766;SDS011;15921;52.034;20.650;2024-01-30T13:23:40;24.73;;;11.38;;
28766;SDS011;15921;52.034;20.650;2024-01-30T13:26:06;27.17;;;11.48;;
28766;SDS011;15921;52.034;20.650;2024-01-30T13:28:32;23.38;;;11.80;;
28766;SDS011;15921;52.034;20.650;2024-01-30T13:30:58;27.13;;;11.80;;
28766;SDS011;15921;52.034;20.650;2024-01-30T13:33:24;25.33;;;12.32;;
28766;SDS011;15921;52.034;20.650;2024-01-30T13:35:50;23.75;;;11.82;;
28766;SDS011;15921;52.034;20.650;2024-01-30T13:38:15;27.38;;;11.40;;
28766;SDS011;15921;52.034;20.650;2024-01-30T13:40:41;20.48;;;10.48;;
28766;SDS011;15921;52.034;20.650;2024-01-30T13:43:07;24.38;;;12.32;;
28766;SDS011;15921;52.034;20.650;2024-01-30T13:45:32;31.65;;;11.65;;
28766;SDS011;15921;52.034;20.650;2024-01-30T13:47:58;20.95;;;10.75;;
28766;SDS011;15921;52.034;20.650;2024-01-30T13:50:24;24.23;;;10.85;;
28766;SDS011;15921;52.034;20.650;2024-01-30T13:52:50;24.23;;;11.40;;
28766;SDS011;15921;52.034;20.650;2024-01-30T13:55:15;22.42;;;11.05;;
28766;SDS011;15921;52.034;20.650;2024-01-30T13:57:41;25.50;;;12.23;;
28766;SDS011;15921;52.034;20.650;2024-01-30T14:00:07;22.90;;;10.90;;
28766;SDS011;15921;52.034;20.650;2024-01-30T14:02:33;27.42;;;12.90;;
28766;SDS011;15921;52.034;20.650;2024-01-30T14:04:59;29.20;;;12.35;;
28766;SDS011;15921;52.034;20.650;2024-01-30T14:07:25;27.80;;;12.65;;
28766;SDS011;15921;52.034;20.650;2024-01-30T14:09:50;29.38;;;12.63;;
28766;SDS011;15921;52.034;20.650;2024-01-30T14:12:16;26.40;;;11.98;;